sensor_id;sensor_type;location;lat;lon;timestamp;pressure;altitude;pressure_sealevel;temperature;humidity
77881;BME280;67077;50.298;18.996;2024-01-27T00:01:04;98322.50;;;2.97;100.00
77881;BME280;67077;50.298;18.996;2024-01-27T00:03:45;98330.65;;;2.93;100.00
77881;BME280;67077;50.298;18.996;2024-01-27T00:06:13;98329.53;;;2.90;100.00
77881;BME280;67077;50.298;18.996;2024-01-27T00:08:40;98343.41;;;2.87;100.00
77881;BME280;67077;50.298;18.996;2024-01-27T00:11:11;98342.98;;;2.84;100.00
77881;BME280;67077;50.298;18.996;2024-01-27T00:13:39;98357.13;;;2.82;100.00
77881;BME280;67077;50.298;18.996;2024-01-27T00:16:07;98359.23;;;2.82;100.00
77881;BME280;67077;50.298;18.996;2024-01-27T00:18:38;98359.89;;;2.83;100.00
77881;BME280;67077;50.298;18.996;2024-01-27T00:21:06;98363.77;;;2.85;100.00
77881;BME280;67077;50.298;18.996;2024-01-27T00:23:34;98368.80;;;2.86;100.00
77881;BME280;67077;50.298;18.996;2024-01-27T00:26:02;98363.92;;;2.86;100.00
77881;BME280;67077;50.298;18.996;2024-01-27T00:28:31;98373.08;;;2.87;100.00
77881;BME280;67077;50.298;18.996;2024-01-27T00:30:58;98374.91;;;2.88;100.00
77881;BME280;67077;50.298;18.996;2024-01-27T00:33:26;98368.90;;;2.90;100.00
77881;BME280;67077;50.298;18.996;2024-01-27T00:35:54;98367.27;;;2.90;100.00
77881;BME280;67077;50.298;18.996;2024-01-27T00:38:22;98375.67;;;2.88;100.00
77881;BME280;67077;50.298;18.996;2024-01-27T00:40:49;98384.31;;;2.87;100.00
77881;BME280;67077;50.298;18.996;2024-01-27T00:43:17;98392.42;;;2.88;100.00
77881;BME280;67077;50.298;18.996;2024-01-27T00:45:45;98397.16;;;2.88;100.00
77881;BME280;67077;50.298;18.996;2024-01-27T00:48:13;98401.38;;;2.89;100.00
77881;BME280;67077;50.298;18.996;2024-01-27T00:50:41;98407.85;;;2.87;100.00
77881;BME280;67077;50.298;18.996;2024-01-27T00:53:09;98412.25;;;2.86;100.00
77881;BME280;67077;50.298;18.996;2024-01-27T00:55:36;98418.42;;;2.86;100.00
77881;BME280;67077;50.298;18.996;2024-01-27T00:58:04;98429.00;;;2.87;100.00
77881;BME280;67077;50.298;18.996;2024-01-27T01:00:32;98428.44;;;2.89;100.00
77881;BME280;67077;50.298;18.996;2024-01-27T01:03:00;98429.94;;;2.88;100.00
77881;BME280;67077;50.298;18.996;2024-01-27T01:05:28;98437.18;;;2.85;100.00
77881;BME280;67077;50.298;18.996;2024-01-27T01:07:56;98435.14;;;2.86;100.00
77881;BME280;67077;50.298;18.996;2024-01-27T01:10:24;98437.02;;;2.89;100.00
77881;BME280;67077;50.298;18.996;2024-01-27T01:12:52;98441.79;;;2.89;100.00
77881;BME280;67077;50.298;18.996;2024-01-27T01:15:19;98441.79;;;2.87;100.00
77881;BME280;67077;50.298;18.996;2024-01-27T01:17:47;98442.92;;;2.87;100.00
77881;BME280;67077;50.298;18.996;2024-01-27T01:20:16;98444.29;;;2.89;100.00
77881;BME280;67077;50.298;18.996;2024-01-27T01:22:44;98452.30;;;2.91;100.00
77881;BME280;67077;50.298;18.996;2024-01-27T01:25:11;98457.17;;;2.90;100.00
77881;BME280;67077;50.298;18.996;2024-01-27T01:27:39;98468.98;;;2.87;100.00
77881;BME280;67077;50.298;18.996;2024-01-27T01:30:07;98472.08;;;2.85;100.00
77881;BME280;67077;50.298;18.996;2024-01-27T01:32:37;98471.61;;;2.85;100.00
77881;BME280;67077;50.298;18.996;2024-01-27T01:35:05;98477.69;;;2.85;100.00
77881;BME280;67077;50.298;18.996;2024-01-27T01:37:33;98469.55;;;2.84;100.00
77881;BME280;67077;50.298;18.996;2024-01-27T01:40:00;98475.79;;;2.82;100.00
77881;BME280;67077;50.298;18.996;2024-01-27T01:42:29;98462.89;;;2.81;100.00
77881;BME280;67077;50.298;18.996;2024-01-27T01:44:57;98467.84;;;2.80;100.00
77881;BME280;67077;50.298;18.996;2024-01-27T01:47:25;98461.45;;;2.78;100.00
77881;BME280;67077;50.298;18.996;2024-01-27T01:49:53;98466.40;;;2.77;100.00
77881;BME280;67077;50.298;18.996;2024-01-27T01:52:23;98458.71;;;2.75;100.00
77881;BME280;67077;50.298;18.996;2024-01-27T01:54:50;98461.65;;;2.75;100.00
77881;BME280;67077;50.298;18.996;2024-01-27T01:57:18;98467.29;;;2.73;100.00
77881;BME280;67077;50.298;18.996;2024-01-27T01:59:46;98461.88;;;2.72;100.00
77881;BME280;67077;50.298;18.996;2024-01-27T02:02:14;98469.25;;;2.70;100.00
77881;BME280;67077;50.298;18.996;2024-01-27T02:04:45;98462.60;;;2.67;100.00
77881;BME280;67077;50.298;18.996;2024-01-27T02:07:16;98464.54;;;2.66;100.00
77881;BME280;67077;50.298;18.996;2024-01-27T02:09:43;98463.16;;;2.64;100.00
77881;BME280;67077;50.298;18.996;2024-01-27T02:12:11;98465.64;;;2.60;100.00
77881;BME280;67077;50.298;18.996;2024-01-27T02:14:39;98467.92;;;2.57;100.00
77881;BME280;67077;50.298;18.996;2024-01-27T02:17:07;98466.10;;;2.54;100.00
77881;BME280;67077;50.298;18.996;2024-01-27T02:19:35;98461.56;;;2.52;100.00
77881;BME280;67077;50.298;18.996;2024-01-27T02:22:02;98468.25;;;2.49;100.00
77881;BME280;67077;50.298;18.996;2024-01-27T02:24:30;98464.87;;;2.46;100.00
77881;BME280;67077;50.298;18.996;2024-01-27T02:26:58;98473.89;;;2.44;100.00
77881;BME280;67077;50.298;18.996;2024-01-27T02:29:26;98468.70;;;2.41;100.00
77881;BME280;67077;50.298;18.996;2024-01-27T02:31:55;98474.81;;;2.37;100.00
77881;BME280;67077;50.298;18.996;2024-01-27T02:34:23;98479.95;;;2.35;100.00
77881;BME280;67077;50.298;18.996;2024-01-27T02:36:51;98481.55;;;2.35;100.00
77881;BME280;67077;50.298;18.996;2024-01-27T02:39:19;98475.11;;;2.36;100.00
77881;BME280;67077;50.298;18.996;2024-01-27T02:41:47;98476.28;;;2.36;100.00
77881;BME280;67077;50.298;18.996;2024-01-27T02:44:14;98473.29;;;2.38;100.00
77881;BME280;67077;50.298;18.996;2024-01-27T02:46:42;98472.23;;;2.39;100.00
77881;BME280;67077;50.298;18.996;2024-01-27T02:49:12;98476.16;;;2.41;100.00
77881;BME280;67077;50.298;18.996;2024-01-27T02:51:39;98474.14;;;2.44;100.00
77881;BME280;67077;50.298;18.996;2024-01-27T02:54:07;98480.95;;;2.45;100.00
77881;BME280;67077;50.298;18.996;2024-01-27T02:56:35;98485.32;;;2.48;100.00
77881;BME280;67077;50.298;18.996;2024-01-27T02:59:03;98480.93;;;2.50;100.00
77881;BME280;67077;50.298;18.996;2024-01-27T03:01:31;98481.73;;;2.51;100.00
77881;BME280;67077;50.298;18.996;2024-01-27T03:03:59;98489.97;;;2.51;100.00
77881;BME280;67077;50.298;18.996;2024-01-27T03:06:26;98488.77;;;2.49;100.00
77881;BME280;67077;50.298;18.996;2024-01-27T03:08:54;98486.73;;;2.46;100.00
77881;BME280;67077;50.298;18.996;2024-01-27T03:11:22;98492.21;;;2.44;100.00
77881;BME280;67077;50.298;18.996;2024-01-27T03:13:50;98501.77;;;2.43;100.00
77881;BME280;67077;50.298;18.996;2024-01-27T03:16:17;98500.81;;;2.42;100.00
77881;BME280;67077;50.298;18.996;2024-01-27T03:18:47;98507.58;;;2.42;100.00
77881;BME280;67077;50.298;18.996;2024-01-27T03:21:15;98507.67;;;2.41;100.00
77881;BME280;67077;50.298;18.996;2024-01-27T03:23:42;98512.77;;;2.39;100.00
77881;BME280;67077;50.298;18.996;2024-01-27T03:26:10;98517.64;;;2.39;100.00
77881;BME280;67077;50.298;18.996;2024-01-27T03:28:38;98517.40;;;2.38;100.00
77881;BME280;67077;50.298;18.996;2024-01-27T03:31:06;98528.33;;;2.35;100.00
77881;BME280;67077;50.298;18.996;2024-01-27T03:33:34;98533.98;;;2.34;100.00
77881;BME280;67077;50.298;18.996;2024-01-27T03:36:01;98531.74;;;2.32;100.00
77881;BME280;67077;50.298;18.996;2024-01-27T03:38:29;98529.40;;;2.30;100.00
77881;BME280;67077;50.298;18.996;2024-01-27T03:40:57;98528.55;;;2.30;100.00
77881;BME280;67077;50.298;18.996;2024-01-27T03:43:27;98530.39;;;2.27;100.00
77881;BME280;67077;50.298;18.996;2024-01-27T03:45:54;98522.90;;;2.24;100.00
77881;BME280;67077;50.298;18.996;2024-01-27T03:48:22;98528.20;;;2.23;100.00
77881;BME280;67077;50.298;18.996;2024-01-27T03:50:50;98525.77;;;2.22;100.00
77881;BME280;67077;50.298;18.996;2024-01-27T03:53:18;98527.23;;;2.22;100.00
77881;BME280;67077;50.298;18.996;2024-01-27T03:55:46;98538.39;;;2.22;100.00
77881;BME280;67077;50.298;18.996;2024-01-27T03:58:14;98537.16;;;2.22;100.00
77881;BME280;67077;50.298;18.996;2024-01-27T04:00:41;98551.52;;;2.22;100.00
77881;BME280;67077;50.298;18.996;2024-01-27T04:03:09;98542.56;;;2.21;100.00
77881;BME280;67077;50.298;18.996;2024-01-27T04:05:37;98549.20;;;2.21;100.00
77881;BME280;67077;50.298;18.996;2024-01-27T04:08:05;98549.03;;;2.22;100.00
77881;BME280;67077;50.298;18.996;2024-01-27T04:10:34;98561.65;;;2.24;100.00
77881;BME280;67077;50.298;18.996;2024-01-27T04:13:02;98551.65;;;2.25;100.00
77881;BME280;67077;50.298;18.996;2024-01-27T04:15:29;98564.27;;;2.26;100.00
77881;BME280;67077;50.298;18.996;2024-01-27T04:17:57;98571.96;;;2.28;100.00
77881;BME280;67077;50.298;18.996;2024-01-27T04:20:25;98569.33;;;2.27;100.00
77881;BME280;67077;50.298;18.996;2024-01-27T04:22:53;98565.43;;;2.27;100.00
77881;BME280;67077;50.298;18.996;2024-01-27T04:25:21;98568.80;;;2.27;100.00
77881;BME280;67077;50.298;18.996;2024-01-27T04:27:48;98569.72;;;2.25;100.00
77881;BME280;67077;50.298;18.996;2024-01-27T04:30:16;98566.11;;;2.24;100.00
77881;BME280;67077;50.298;18.996;2024-01-27T04:32:44;98575.23;;;2.23;100.00
77881;BME280;67077;50.298;18.996;2024-01-27T04:35:13;98576.05;;;2.24;100.00
77881;BME280;67077;50.298;18.996;2024-01-27T04:37:41;98579.16;;;2.25;100.00
77881;BME280;67077;50.298;18.996;2024-01-27T04:40:09;98585.34;;;2.24;100.00
77881;BME280;67077;50.298;18.996;2024-01-27T04:42:38;98586.45;;;2.24;100.00
77881;BME280;67077;50.298;18.996;2024-01-27T04:45:07;98589.52;;;2.25;100.00
77881;BME280;67077;50.298;18.996;2024-01-27T04:47:35;98597.45;;;2.25;100.00
77881;BME280;67077;50.298;18.996;2024-01-27T04:50:03;98588.55;;;2.26;100.00
77881;BME280;67077;50.298;18.996;2024-01-27T04:52:31;98601.23;;;2.26;100.00
77881;BME280;67077;50.298;18.996;2024-01-27T04:54:59;98604.54;;;2.27;100.00
77881;BME280;67077;50.298;18.996;2024-01-27T04:57:27;98605.98;;;2.29;100.00
77881;BME280;67077;50.298;18.996;2024-01-27T04:59:55;98610.10;;;2.31;100.00
77881;BME280;67077;50.298;18.996;2024-01-27T05:02:23;98607.96;;;2.31;100.00
77881;BME280;67077;50.298;18.996;2024-01-27T05:04:50;98604.28;;;2.30;100.00
77881;BME280;67077;50.298;18.996;2024-01-27T05:07:18;98605.23;;;2.29;100.00
77881;BME280;67077;50.298;18.996;2024-01-27T05:09:46;98601.08;;;2.30;100.00
77881;BME280;67077;50.298;18.996;2024-01-27T05:12:14;98603.41;;;2.30;100.00
77881;BME280;67077;50.298;18.996;2024-01-27T05:14:45;98601.43;;;2.32;100.00
77881;BME280;67077;50.298;18.996;2024-01-27T05:17:13;98594.63;;;2.32;100.00
77881;BME280;67077;50.298;18.996;2024-01-27T05:19:41;98608.46;;;2.31;100.00
77881;BME280;67077;50.298;18.996;2024-01-27T05:22:09;98603.64;;;2.29;100.00
77881;BME280;67077;50.298;18.996;2024-01-27T05:24:36;98604.94;;;2.27;100.00
77881;BME280;67077;50.298;18.996;2024-01-27T05:27:04;98608.37;;;2.26;100.00
77881;BME280;67077;50.298;18.996;2024-01-27T05:29:32;98608.26;;;2.26;100.00
77881;BME280;67077;50.298;18.996;2024-01-27T05:32:00;98612.19;;;2.25;100.00
77881;BME280;67077;50.298;18.996;2024-01-27T05:34:28;98615.30;;;2.25;100.00
77881;BME280;67077;50.298;18.996;2024-01-27T05:36:56;98608.95;;;2.24;100.00
77881;BME280;67077;50.298;18.996;2024-01-27T05:39:23;98605.05;;;2.24;100.00
77881;BME280;67077;50.298;18.996;2024-01-27T05:41:51;98604.58;;;2.23;100.00
77881;BME280;67077;50.298;18.996;2024-01-27T05:44:19;98609.64;;;2.23;100.00
77881;BME280;67077;50.298;18.996;2024-01-27T05:46:47;98603.17;;;2.23;100.00
77881;BME280;67077;50.298;18.996;2024-01-27T05:49:14;98608.21;;;2.23;100.00
77881;BME280;67077;50.298;18.996;2024-01-27T05:51:42;98602.71;;;2.23;100.00
77881;BME280;67077;50.298;18.996;2024-01-27T05:54:11;98605.60;;;2.22;100.00
77881;BME280;67077;50.298;18.996;2024-01-27T05:56:42;98611.20;;;2.21;100.00
77881;BME280;67077;50.298;18.996;2024-01-27T05:59:10;98609.13;;;2.21;100.00
77881;BME280;67077;50.298;18.996;2024-01-27T06:01:38;98611.48;;;2.20;100.00
77881;BME280;67077;50.298;18.996;2024-01-27T06:04:08;98614.38;;;2.18;100.00
77881;BME280;67077;50.298;18.996;2024-01-27T06:06:39;98616.34;;;2.16;100.00
77881;BME280;67077;50.298;18.996;2024-01-27T06:09:07;98614.91;;;2.15;100.00
77881;BME280;67077;50.298;18.996;2024-01-27T06:11:38;98615.13;;;2.14;100.00
77881;BME280;67077;50.298;18.996;2024-01-27T06:14:06;98620.41;;;2.13;100.00
77881;BME280;67077;50.298;18.996;2024-01-27T06:16:34;98619.94;;;2.12;100.00
77881;BME280;67077;50.298;18.996;2024-01-27T06:19:03;98630.63;;;2.12;100.00
77881;BME280;67077;50.298;18.996;2024-01-27T06:21:30;98634.71;;;2.12;100.00
77881;BME280;67077;50.298;18.996;2024-01-27T06:23:58;98636.86;;;2.12;100.00
77881;BME280;67077;50.298;18.996;2024-01-27T06:26:26;98638.83;;;2.12;100.00
77881;BME280;67077;50.298;18.996;2024-01-27T06:28:54;98647.16;;;2.10;100.00
77881;BME280;67077;50.298;18.996;2024-01-27T06:31:22;98641.44;;;2.07;100.00
77881;BME280;67077;50.298;18.996;2024-01-27T06:33:49;98646.80;;;2.07;100.00
77881;BME280;67077;50.298;18.996;2024-01-27T06:36:17;98650.02;;;2.06;100.00
77881;BME280;67077;50.298;18.996;2024-01-27T06:38:45;98643.70;;;2.07;100.00
77881;BME280;67077;50.298;18.996;2024-01-27T06:41:13;98656.73;;;2.09;100.00
77881;BME280;67077;50.298;18.996;2024-01-27T06:43:41;98648.62;;;2.10;100.00
77881;BME280;67077;50.298;18.996;2024-01-27T06:46:09;98644.06;;;2.11;100.00
77881;BME280;67077;50.298;18.996;2024-01-27T06:48:37;98650.71;;;2.14;100.00
77881;BME280;67077;50.298;18.996;2024-01-27T06:51:04;98649.23;;;2.14;100.00
77881;BME280;67077;50.298;18.996;2024-01-27T06:53:32;98647.92;;;2.15;100.00
77881;BME280;67077;50.298;18.996;2024-01-27T06:56:00;98645.13;;;2.17;100.00
77881;BME280;67077;50.298;18.996;2024-01-27T06:58:28;98642.01;;;2.17;100.00
77881;BME280;67077;50.298;18.996;2024-01-27T07:00:56;98660.64;;;2.18;100.00
77881;BME280;67077;50.298;18.996;2024-01-27T07:03:24;98662.77;;;2.18;100.00
77881;BME280;67077;50.298;18.996;2024-01-27T07:05:52;98660.34;;;2.17;100.00
77881;BME280;67077;50.298;18.996;2024-01-27T07:08:20;98662.34;;;2.17;100.00
77881;BME280;67077;50.298;18.996;2024-01-27T07:10:48;98665.91;;;2.15;100.00
77881;BME280;67077;50.298;18.996;2024-01-27T07:13:16;98668.58;;;2.13;100.00
77881;BME280;67077;50.298;18.996;2024-01-27T07:15:44;98670.27;;;2.12;100.00
77881;BME280;67077;50.298;18.996;2024-01-27T07:18:11;98669.83;;;2.11;100.00
77881;BME280;67077;50.298;18.996;2024-01-27T07:20:39;98667.70;;;2.11;100.00
77881;BME280;67077;50.298;18.996;2024-01-27T07:23:07;98668.30;;;2.12;100.00
77881;BME280;67077;50.298;18.996;2024-01-27T07:25:36;98669.00;;;2.14;100.00
77881;BME280;67077;50.298;18.996;2024-01-27T07:28:03;98662.16;;;2.15;100.00
77881;BME280;67077;50.298;18.996;2024-01-27T07:30:32;98672.90;;;2.16;100.00
77881;BME280;67077;50.298;18.996;2024-01-27T07:33:00;98667.80;;;2.16;100.00
77881;BME280;67077;50.298;18.996;2024-01-27T07:35:27;98672.00;;;2.16;100.00
77881;BME280;67077;50.298;18.996;2024-01-27T07:37:55;98678.48;;;2.17;100.00
77881;BME280;67077;50.298;18.996;2024-01-27T07:40:23;98669.38;;;2.18;100.00
77881;BME280;67077;50.298;18.996;2024-01-27T07:42:51;98668.30;;;2.16;100.00
77881;BME280;67077;50.298;18.996;2024-01-27T07:45:19;98670.02;;;2.15;100.00
77881;BME280;67077;50.298;18.996;2024-01-27T07:47:46;98680.27;;;2.15;100.00
77881;BME280;67077;50.298;18.996;2024-01-27T07:50:14;98669.09;;;2.19;100.00
77881;BME280;67077;50.298;18.996;2024-01-27T07:52:42;98677.47;;;2.20;100.00
77881;BME280;67077;50.298;18.996;2024-01-27T07:55:10;98679.27;;;2.20;100.00
77881;BME280;67077;50.298;18.996;2024-01-27T07:57:38;98688.31;;;2.18;100.00
77881;BME280;67077;50.298;18.996;2024-01-27T08:00:06;98687.25;;;2.18;100.00
77881;BME280;67077;50.298;18.996;2024-01-27T08:02:34;98695.66;;;2.20;100.00
77881;BME280;67077;50.298;18.996;2024-01-27T08:05:03;98703.55;;;2.21;100.00
77881;BME280;67077;50.298;18.996;2024-01-27T08:07:31;98703.45;;;2.22;100.00
77881;BME280;67077;50.298;18.996;2024-01-27T08:09:59;98696.29;;;2.22;100.00
77881;BME280;67077;50.298;18.996;2024-01-27T08:12:27;98696.74;;;2.21;100.00
77881;BME280;67077;50.298;18.996;2024-01-27T08:14:55;98686.41;;;2.21;100.00
77881;BME280;67077;50.298;18.996;2024-01-27T08:17:23;98685.17;;;2.21;100.00
77881;BME280;67077;50.298;18.996;2024-01-27T08:19:50;98690.34;;;2.21;100.00
77881;BME280;67077;50.298;18.996;2024-01-27T08:22:19;98692.31;;;2.21;100.00
77881;BME280;67077;50.298;18.996;2024-01-27T08:24:46;98673.66;;;2.21;100.00
77881;BME280;67077;50.298;18.996;2024-01-27T08:27:14;98674.36;;;2.19;100.00
77881;BME280;67077;50.298;18.996;2024-01-27T08:29:42;98682.02;;;2.19;100.00
77881;BME280;67077;50.298;18.996;2024-01-27T08:32:10;98670.77;;;2.20;100.00
77881;BME280;67077;50.298;18.996;2024-01-27T08:34:38;98663.40;;;2.20;100.00
77881;BME280;67077;50.298;18.996;2024-01-27T08:37:23;98672.23;;;2.19;100.00
77881;BME280;67077;50.298;18.996;2024-01-27T08:39:51;98681.04;;;2.15;100.00
77881;BME280;67077;50.298;18.996;2024-01-27T08:42:19;98684.11;;;2.09;100.00
77881;BME280;67077;50.298;18.996;2024-01-27T08:44:47;98688.63;;;2.03;100.00
77881;BME280;67077;50.298;18.996;2024-01-27T08:47:14;98693.58;;;1.97;100.00
77881;BME280;67077;50.298;18.996;2024-01-27T08:49:42;98688.14;;;1.93;100.00
77881;BME280;67077;50.298;18.996;2024-01-27T08:52:10;98696.08;;;1.87;100.00
77881;BME280;67077;50.298;18.996;2024-01-27T08:54:38;98705.85;;;1.77;100.00
77881;BME280;67077;50.298;18.996;2024-01-27T08:57:06;98686.94;;;1.67;100.00
77881;BME280;67077;50.298;18.996;2024-01-27T08:59:34;98695.08;;;1.60;100.00
77881;BME280;67077;50.298;18.996;2024-01-27T09:02:03;98701.85;;;1.53;100.00
77881;BME280;67077;50.298;18.996;2024-01-27T09:04:31;98699.09;;;1.46;100.00
77881;BME280;67077;50.298;18.996;2024-01-27T09:06:59;98697.16;;;1.40;100.00
77881;BME280;67077;50.298;18.996;2024-01-27T09:09:26;98709.08;;;1.35;100.00
77881;BME280;67077;50.298;18.996;2024-01-27T09:11:54;98715.92;;;1.30;100.00
77881;BME280;67077;50.298;18.996;2024-01-27T09:14:22;98710.34;;;1.25;100.00
77881;BME280;67077;50.298;18.996;2024-01-27T09:16:50;98722.91;;;1.22;100.00
77881;BME280;67077;50.298;18.996;2024-01-27T09:19:19;98731.61;;;1.19;100.00
77881;BME280;67077;50.298;18.996;2024-01-27T09:21:47;98729.81;;;1.18;100.00
77881;BME280;67077;50.298;18.996;2024-01-27T09:24:15;98728.90;;;1.16;100.00
77881;BME280;67077;50.298;18.996;2024-01-27T09:26:43;98729.56;;;1.13;100.00
77881;BME280;67077;50.298;18.996;2024-01-27T09:29:11;98725.65;;;1.08;100.00
77881;BME280;67077;50.298;18.996;2024-01-27T09:31:39;98725.80;;;1.02;100.00
77881;BME280;67077;50.298;18.996;2024-01-27T09:34:07;98725.93;;;0.97;100.00
77881;BME280;67077;50.298;18.996;2024-01-27T09:36:35;98718.06;;;0.94;100.00
77881;BME280;67077;50.298;18.996;2024-01-27T09:39:03;98721.05;;;0.92;100.00
77881;BME280;67077;50.298;18.996;2024-01-27T09:41:31;98718.13;;;0.91;100.00
77881;BME280;67077;50.298;18.996;2024-01-27T09:44:03;98718.32;;;0.91;100.00
77881;BME280;67077;50.298;18.996;2024-01-27T09:46:32;98716.34;;;0.91;100.00
77881;BME280;67077;50.298;18.996;2024-01-27T09:49:00;98714.89;;;0.92;100.00
77881;BME280;67077;50.298;18.996;2024-01-27T09:51:30;98712.89;;;0.90;100.00
77881;BME280;67077;50.298;18.996;2024-01-27T09:53:58;98714.04;;;0.89;100.00
77881;BME280;67077;50.298;18.996;2024-01-27T09:56:26;98709.65;;;0.89;100.00
77881;BME280;67077;50.298;18.996;2024-01-27T09:58:53;98719.14;;;0.89;100.00
77881;BME280;67077;50.298;18.996;2024-01-27T10:01:24;98720.81;;;0.93;100.00
77881;BME280;67077;50.298;18.996;2024-01-27T10:03:55;98716.08;;;0.98;100.00
77881;BME280;67077;50.298;18.996;2024-01-27T10:06:23;98703.04;;;1.03;100.00
77881;BME280;67077;50.298;18.996;2024-01-27T10:08:53;98703.98;;;1.06;100.00
77881;BME280;67077;50.298;18.996;2024-01-27T10:11:21;98705.01;;;1.08;100.00
77881;BME280;67077;50.298;18.996;2024-01-27T10:13:56;98706.09;;;1.10;100.00
77881;BME280;67077;50.298;18.996;2024-01-27T10:16:25;98706.30;;;1.13;100.00
77881;BME280;67077;50.298;18.996;2024-01-27T10:19:01;98717.19;;;1.16;100.00
77881;BME280;67077;50.298;18.996;2024-01-27T10:21:29;98718.88;;;1.21;100.00
77881;BME280;67077;50.298;18.996;2024-01-27T10:23:57;98717.53;;;1.26;100.00
77881;BME280;67077;50.298;18.996;2024-01-27T10:26:25;98709.95;;;1.31;100.00
77881;BME280;67077;50.298;18.996;2024-01-27T10:28:56;98714.20;;;1.37;100.00
77881;BME280;67077;50.298;18.996;2024-01-27T10:31:28;98715.80;;;1.42;100.00
77881;BME280;67077;50.298;18.996;2024-01-27T10:33:57;98712.98;;;1.51;100.00
77881;BME280;67077;50.298;18.996;2024-01-27T10:36:26;98714.83;;;1.63;100.00
77881;BME280;67077;50.298;18.996;2024-01-27T10:38:54;98716.83;;;1.70;100.00
77881;BME280;67077;50.298;18.996;2024-01-27T10:41:23;98716.77;;;1.76;100.00
77881;BME280;67077;50.298;18.996;2024-01-27T10:43:56;98714.36;;;1.79;100.00
77881;BME280;67077;50.298;18.996;2024-01-27T10:46:27;98715.30;;;1.79;100.00
77881;BME280;67077;50.298;18.996;2024-01-27T10:48:59;98715.33;;;1.78;100.00
77881;BME280;67077;50.298;18.996;2024-01-27T10:51:31;98722.52;;;1.79;100.00
77881;BME280;67077;50.298;18.996;2024-01-27T10:54:03;98725.02;;;1.79;100.00
77881;BME280;67077;50.298;18.996;2024-01-27T10:56:32;98717.67;;;1.80;100.00
77881;BME280;67077;50.298;18.996;2024-01-27T10:59:01;98722.77;;;1.80;100.00
77881;BME280;67077;50.298;18.996;2024-01-27T11:01:33;98724.73;;;1.80;100.00
77881;BME280;67077;50.298;18.996;2024-01-27T11:04:03;98729.09;;;1.83;100.00
77881;BME280;67077;50.298;18.996;2024-01-27T11:06:31;98727.47;;;1.84;100.00
77881;BME280;67077;50.298;18.996;2024-01-27T11:09:01;98733.13;;;1.80;100.00
77881;BME280;67077;50.298;18.996;2024-01-27T11:11:31;98735.55;;;1.73;100.00
77881;BME280;67077;50.298;18.996;2024-01-27T11:14:00;98742.89;;;1.67;100.00
77881;BME280;67077;50.298;18.996;2024-01-27T11:16:28;98748.46;;;1.59;100.00
77881;BME280;67077;50.298;18.996;2024-01-27T11:18:56;98754.36;;;1.57;100.00
77881;BME280;67077;50.298;18.996;2024-01-27T11:21:24;98752.36;;;1.54;100.00
77881;BME280;67077;50.298;18.996;2024-01-27T11:23:52;98756.84;;;1.49;100.00
77881;BME280;67077;50.298;18.996;2024-01-27T11:26:21;98753.38;;;1.47;100.00
77881;BME280;67077;50.298;18.996;2024-01-27T11:28:49;98756.85;;;1.42;100.00
77881;BME280;67077;50.298;18.996;2024-01-27T11:31:19;98755.36;;;1.39;100.00
77881;BME280;67077;50.298;18.996;2024-01-27T11:33:50;98766.41;;;1.36;100.00
77881;BME280;67077;50.298;18.996;2024-01-27T11:36:23;98775.02;;;1.34;100.00
77881;BME280;67077;50.298;18.996;2024-01-27T11:38:52;98761.44;;;1.31;100.00
77881;BME280;67077;50.298;18.996;2024-01-27T11:41:30;98764.52;;;1.30;100.00
77881;BME280;67077;50.298;18.996;2024-01-27T11:43:58;98765.12;;;1.30;100.00
77881;BME280;67077;50.298;18.996;2024-01-27T11:46:30;98761.92;;;1.30;100.00
77881;BME280;67077;50.298;18.996;2024-01-27T11:48:58;98766.99;;;1.31;100.00
77881;BME280;67077;50.298;18.996;2024-01-27T11:51:26;98765.45;;;1.32;100.00
77881;BME280;67077;50.298;18.996;2024-01-27T11:53:53;98771.02;;;1.31;100.00
77881;BME280;67077;50.298;18.996;2024-01-27T11:56:21;98781.89;;;1.29;100.00
77881;BME280;67077;50.298;18.996;2024-01-27T11:58:49;98779.60;;;1.27;100.00
77881;BME280;67077;50.298;18.996;2024-01-27T12:01:17;98787.48;;;1.26;100.00
77881;BME280;67077;50.298;18.996;2024-01-27T12:03:45;98788.08;;;1.24;100.00
77881;BME280;67077;50.298;18.996;2024-01-27T12:06:13;98795.90;;;1.21;100.00
77881;BME280;67077;50.298;18.996;2024-01-27T12:08:42;98792.56;;;1.21;100.00
77881;BME280;67077;50.298;18.996;2024-01-27T12:11:14;98793.46;;;1.20;100.00
77881;BME280;67077;50.298;18.996;2024-01-27T12:13:42;98797.58;;;1.20;100.00
77881;BME280;67077;50.298;18.996;2024-01-27T12:16:10;98796.95;;;1.19;100.00
77881;BME280;67077;50.298;18.996;2024-01-27T12:18:38;98792.96;;;1.20;100.00
77881;BME280;67077;50.298;18.996;2024-01-27T12:21:06;98797.70;;;1.21;100.00
77881;BME280;67077;50.298;18.996;2024-01-27T12:23:34;98798.20;;;1.21;100.00
77881;BME280;67077;50.298;18.996;2024-01-27T12:26:02;98800.42;;;1.23;100.00
77881;BME280;67077;50.298;18.996;2024-01-27T12:28:29;98799.92;;;1.22;100.00
77881;BME280;67077;50.298;18.996;2024-01-27T12:30:58;98808.63;;;1.22;100.00
77881;BME280;67077;50.298;18.996;2024-01-27T12:33:26;98806.06;;;1.23;100.00
77881;BME280;67077;50.298;18.996;2024-01-27T12:35:55;98814.09;;;1.23;100.00
77881;BME280;67077;50.298;18.996;2024-01-27T12:38:23;98811.74;;;1.21;100.00
77881;BME280;67077;50.298;18.996;2024-01-27T12:40:51;98815.52;;;1.20;100.00
77881;BME280;67077;50.298;18.996;2024-01-27T12:43:19;98817.02;;;1.19;100.00
77881;BME280;67077;50.298;18.996;2024-01-27T12:45:47;98821.67;;;1.19;100.00
77881;BME280;67077;50.298;18.996;2024-01-27T12:48:14;98824.70;;;1.19;100.00
77881;BME280;67077;50.298;18.996;2024-01-27T12:50:42;98828.57;;;1.17;100.00
77881;BME280;67077;50.298;18.996;2024-01-27T12:53:10;98828.16;;;1.14;100.00
77881;BME280;67077;50.298;18.996;2024-01-27T12:55:38;98825.33;;;1.14;100.00